Bernalillo, NM (87004)

1:28 AM MST on December 04, 2016 (GMT -0700)
Roadrunner Trail | | Change Station

Elev 5272 ft 35.32 °N, 106.52 °W | Updated 29 seconds ago

Clear
Clear
32.5 °F
Feels Like 32 °F
N
0.4
Wind Variable Wind from NE
Gusts 2.5 mph

Today
High -- | Low -- °F
--% Chance of Precip.
Yesterday
High -- | Low -- °F
Precip. -- in
Pressure 30.10 in
Visibility 10.0 miles
Clouds Clear
Windchill 32 °F
Dew Point 18 °F
Humidity 54%
Rainfall 0.00 in
Snow Depth Not available.
6:59 AM 4:53 PM
Waxing Crescent, 21% visible
METAR KAEG 040815Z AUTO 31009KT 10SM CLR M02/M10 A3010 RMK AO2 T10221101
Pressure 30.10 in
Visibility 10.0 miles
Clouds Clear
Windchill 32 °F
Dew Point 18 °F
Humidity 54%
Rainfall 0.00 in
Snow Depth Not available.
6:59 AM 4:53 PM
Waxing Crescent, 21% visible
METAR KAEG 040815Z AUTO 31009KT 10SM CLR M02/M10 A3010 RMK AO2 T10221101

10-Day Weather Forecast

Almanac

Astronomy

Dec. 04, 2016 Rise Set
Actual Time
Civil Twilight
Nautical Twilight
Astronomical Twilight
Moon
Length of Visible Light
Length of Day
Tomorrow will be .
, % of the Moon is Illuminated

Today's Extremes

State Highs State Lows

Community

WunderPhotos

Upload Photos

1,955,587 photos uploaded!

WunderBlog® & News

Nearby

Air Quality

  Air Quality AQ Index Pollutant
Not available.

Snow Depth

Station Depth Elevation

Earthquake Activity

City Distance Mag. Time & Date
Minimum magnitude displayed is 2.5.

Coastal Water Temperatures

Place Temperature

Stations

Nearby Weather Stations

Station Location Temp. Windchill Dew Point Humidity Wind Precip. Elev Updated Type
                   

Watches & Warnings

There are currently no watches in effect.